Fletcher, Ohio
Current Conditions -  °F | °C
As of 1:56 AM on Thursday 27 Nov 2014 (Local Time) from KDAY Reporting Station
Haze Haze  
Wind Chill: 19°   Ceiling: Unl
Heat Index: 27°   Visibility: 6mi
Dew Point: 23°   Wind: 7mph
Humidity: 85%   Direction: 330°NNW
Pressure: 30.06"   Gusts: NA
Location:  40.14°N, 84.11°W
Report Text: KDAY 270656Z 33006KT 6SM BR SCT110 M03/M05 A3006 RMK AO2 SLP191 T10281050
Loading
Personal Weather Stations






























Interactive Weather Map New forecast layout! Learn more

10-Day Weather Forecast

Advertisements
Track Severe Weather on mobile